createdAt,value
2023-03-06T00:00:17.079Z,10.67
2023-03-06T00:02:45.770Z,10.57
2023-03-06T00:05:16.287Z,9.98
2023-03-06T00:07:45.537Z,11.18
2023-03-06T00:10:15.169Z,11.02
2023-03-06T00:15:13.016Z,10.88
2023-03-06T00:17:41.677Z,12.25
2023-03-06T00:20:11.659Z,12.27
2023-03-06T00:22:41.653Z,12.15
2023-03-06T00:25:13.871Z,12.10
2023-03-06T00:27:42.939Z,12.38
2023-03-06T00:30:13.127Z,13.20
2023-03-06T00:32:41.855Z,12.77
2023-03-06T00:35:10.985Z,13.10
2023-03-06T00:37:39.617Z,12.45
2023-03-06T00:40:11.754Z,13.38
2023-03-06T00:42:40.485Z,12.60
2023-03-06T00:45:09.661Z,12.60
2023-03-06T00:47:38.582Z,12.65
2023-03-06T00:50:07.522Z,12.57
2023-03-06T00:52:36.260Z,12.63
2023-03-06T00:55:05.473Z,13.15
2023-03-06T00:57:35.448Z,12.90
2023-03-06T01:00:04.281Z,13.52
2023-03-06T01:02:33.606Z,13.57
2023-03-06T01:05:02.808Z,13.80
2023-03-06T01:07:33.947Z,13.63
2023-03-06T01:10:02.915Z,13.93
2023-03-06T01:12:31.921Z,12.70
2023-03-06T01:15:02.277Z,14.05
2023-03-06T01:17:31.242Z,13.75
2023-03-06T01:19:59.904Z,14.82
2023-03-06T01:22:28.819Z,14.52
2023-03-06T01:24:57.407Z,15.17
2023-03-06T01:27:26.331Z,14.32
2023-03-06T01:29:55.411Z,13.97
2023-03-06T01:32:25.835Z,14.15
2023-03-06T01:34:54.896Z,14.90
2023-03-06T01:37:23.663Z,13.38
2023-03-06T01:39:52.507Z,14.38
2023-03-06T01:42:21.194Z,13.17
2023-03-06T01:45:02.977Z,12.95
2023-03-06T01:47:32.984Z,12.70
2023-03-06T01:50:03.950Z,12.27
2023-03-06T01:52:34.565Z,12.43
2023-03-06T01:55:04.790Z,12.32
2023-03-06T01:57:35.030Z,12.98
2023-03-06T02:00:06.117Z,11.82
2023-03-06T02:02:36.891Z,11.75
2023-03-06T02:05:06.460Z,11.65
2023-03-06T02:07:35.457Z,12.93
2023-03-06T02:10:04.146Z,10.60
2023-03-06T02:12:32.933Z,11.23
2023-03-06T02:15:01.800Z,10.85
2023-03-06T02:17:31.391Z,10.60
2023-03-06T02:20:03.874Z,10.75
2023-03-06T02:22:36.704Z,11.20
2023-03-06T02:25:08.724Z,9.68
2023-03-06T02:27:38.824Z,9.77
2023-03-06T02:30:08.973Z,11.15
2023-03-06T02:32:37.869Z,10.10
2023-03-06T02:35:07.230Z,10.17
2023-03-06T02:37:36.034Z,9.25
2023-03-06T02:40:12.204Z,10.45
2023-03-06T02:42:47.318Z,9.40
2023-03-06T02:45:17.176Z,11.25
2023-03-06T02:47:46.084Z,9.52
2023-03-06T02:50:14.876Z,9.73
2023-03-06T02:52:43.683Z,9.30
2023-03-06T02:55:12.772Z,9.83
2023-03-06T02:57:42.865Z,7.75
2023-03-06T03:00:12.492Z,8.82
2023-03-06T03:02:41.511Z,9.85
2023-03-06T03:05:10.411Z,9.93
2023-03-06T03:07:39.383Z,10.03
2023-03-06T03:10:08.819Z,10.73
2023-03-06T03:12:37.761Z,10.48
2023-03-06T03:15:09.541Z,9.30
2023-03-06T03:17:38.652Z,10.15
2023-03-06T03:20:08.631Z,11.45
2023-03-06T03:22:37.241Z,9.77
2023-03-06T03:25:06.446Z,9.85
2023-03-06T03:27:35.137Z,9.85
2023-03-06T03:30:04.445Z,9.57
2023-03-06T03:32:34.495Z,9.02
2023-03-06T03:35:03.576Z,10.32
2023-03-06T03:37:32.338Z,9.88
2023-03-06T03:40:01.140Z,10.00
2023-03-06T03:42:29.767Z,9.43
2023-03-06T03:44:58.336Z,9.25
2023-03-06T03:47:26.968Z,9.85
2023-03-06T03:49:56.945Z,9.50
2023-03-06T03:52:25.523Z,9.52
2023-03-06T03:54:54.221Z,9.73
2023-03-06T03:57:22.864Z,10.32
2023-03-06T03:59:51.468Z,10.43
2023-03-06T04:02:21.645Z,9.52
2023-03-06T04:04:50.409Z,9.32
2023-03-06T04:07:20.618Z,8.98
2023-03-06T04:09:49.208Z,10.60
2023-03-06T04:12:18.120Z,9.80
2023-03-06T04:14:46.709Z,10.33
2023-03-06T04:17:15.464Z,10.65
2023-03-06T04:19:44.084Z,9.77
2023-03-06T04:22:12.730Z,10.07
2023-03-06T04:24:42.762Z,10.63
2023-03-06T04:27:11.348Z,10.57
2023-03-06T04:29:39.938Z,9.88
2023-03-06T04:32:08.971Z,10.10
2023-03-06T04:34:38.213Z,10.05
2023-03-06T04:37:07.217Z,11.45
2023-03-06T04:39:35.872Z,11.27
2023-03-06T04:42:06.049Z,10.93
2023-03-06T04:44:35.008Z,10.73
2023-03-06T04:47:03.663Z,10.93
2023-03-06T04:49:32.297Z,10.65
2023-03-06T04:52:00.928Z,10.13
2023-03-06T04:54:29.607Z,10.70
2023-03-06T04:56:58.242Z,11.38
2023-03-06T04:59:28.270Z,10.38
2023-03-06T05:01:57.152Z,10.65
2023-03-06T05:04:25.827Z,10.88
2023-03-06T05:06:54.449Z,10.48
2023-03-06T05:09:23.362Z,9.35
2023-03-06T05:11:51.957Z,10.43
2023-03-06T05:14:20.623Z,10.45
2023-03-06T05:16:50.726Z,11.02
2023-03-06T05:19:19.371Z,10.82
2023-03-06T05:21:48.018Z,10.27
2023-03-06T05:24:16.917Z,10.82
2023-03-06T05:26:45.509Z,11.07
2023-03-06T05:29:14.153Z,10.82
2023-03-06T05:31:42.806Z,9.95
2023-03-06T05:34:14.670Z,10.38
2023-03-06T05:36:43.355Z,10.80
2023-03-06T05:39:11.984Z,10.32
2023-03-06T05:41:40.698Z,10.63
2023-03-06T05:44:09.377Z,10.25
2023-03-06T05:46:38.397Z,10.77
2023-03-06T05:49:07.193Z,10.50
2023-03-06T05:51:37.232Z,11.55
2023-03-06T05:54:05.989Z,10.77
2023-03-06T05:56:34.614Z,10.75
2023-03-06T05:59:03.709Z,10.98
2023-03-06T06:01:32.363Z,10.93
2023-03-06T06:04:01.068Z,11.93
2023-03-06T06:06:29.734Z,46.58
2023-03-06T06:08:59.682Z,14.65
2023-03-06T06:11:28.304Z,11.90
2023-03-06T06:13:56.972Z,12.82
2023-03-06T06:16:25.574Z,11.82
2023-03-06T06:18:54.130Z,40.22
2023-03-06T06:21:22.835Z,13.43
2023-03-06T06:23:51.833Z,11.75
2023-03-06T06:26:21.858Z,11.38
2023-03-06T06:28:50.497Z,18.73
2023-03-06T06:31:19.239Z,12.75
2023-03-06T06:33:47.850Z,25.80
2023-03-06T06:36:17.577Z,14.30
2023-03-06T06:44:08.564Z,10.23
2023-03-06T06:49:26.738Z,16.42
2023-03-06T06:51:55.367Z,14.10
2023-03-06T06:54:24.894Z,11.07
2023-03-06T06:56:53.960Z,12.93
2023-03-06T06:59:24.450Z,11.52
2023-03-06T07:01:53.506Z,10.10
2023-03-06T07:04:22.625Z,10.10
2023-03-06T07:06:51.236Z,9.93
2023-03-06T07:09:20.171Z,10.23
2023-03-06T07:11:49.011Z,11.07
2023-03-06T07:14:17.865Z,8.65
2023-03-06T07:16:48.038Z,8.17
2023-03-06T07:19:16.794Z,11.05
2023-03-06T07:21:45.702Z,10.00
2023-03-06T07:24:14.668Z,9.60
2023-03-06T07:26:47.447Z,8.63
2023-03-06T07:29:16.136Z,9.48
2023-03-06T07:31:44.873Z,10.48
2023-03-06T07:34:16.895Z,10.77
2023-03-06T07:36:50.955Z,9.90
2023-03-06T07:39:23.912Z,9.75
2023-03-06T08:13:08.044Z,9.05
2023-03-06T08:43:49.515Z,9.57
2023-03-06T08:50:26.503Z,9.82
2023-03-06T08:52:57.696Z,9.70
2023-03-06T08:55:28.354Z,10.07
2023-03-06T08:57:58.618Z,9.27
2023-03-06T09:00:29.071Z,11.40
2023-03-06T09:02:57.817Z,9.65
2023-03-06T09:05:26.769Z,8.82
2023-03-06T09:07:55.441Z,10.00
2023-03-06T09:10:25.226Z,9.32
2023-03-06T09:15:24.775Z,9.10
2023-03-06T09:17:55.135Z,10.60
2023-03-06T09:20:23.946Z,9.10
2023-03-06T09:22:52.850Z,9.82
2023-03-06T09:25:23.237Z,10.10
2023-03-06T09:28:08.600Z,9.40
2023-03-06T09:30:39.237Z,10.05
2023-03-06T09:33:09.353Z,10.83
2023-03-06T09:35:38.385Z,9.85
2023-03-06T09:38:07.402Z,9.47
2023-03-06T09:40:41.464Z,10.30
2023-03-06T09:43:13.224Z,9.73
2023-03-06T09:45:42.181Z,9.45
2023-03-06T09:48:15.369Z,10.60
2023-03-06T09:50:46.391Z,10.07
2023-03-06T09:53:21.581Z,10.77
2023-03-06T09:55:51.592Z,9.65
2023-03-06T09:58:22.871Z,10.50
2023-03-06T10:00:57.567Z,10.20
2023-03-06T10:03:29.760Z,10.07
2023-03-06T10:06:02.586Z,10.25
2023-03-06T10:08:35.944Z,9.77
2023-03-06T10:11:07.249Z,10.25
2023-03-06T10:13:40.044Z,9.57
2023-03-06T10:16:14.222Z,9.57
2023-03-06T10:18:44.341Z,10.70
2023-03-06T10:21:22.261Z,9.60
2023-03-06T10:23:54.303Z,10.32
2023-03-06T10:26:25.874Z,9.02
2023-03-06T10:29:01.980Z,10.35
2023-03-06T10:31:30.703Z,10.10
2023-03-06T10:34:09.348Z,10.35
2023-03-06T10:36:37.986Z,10.02
2023-03-06T10:39:11.203Z,9.77
2023-03-06T10:41:39.815Z,11.02
2023-03-06T10:44:25.144Z,10.07
2023-03-06T10:46:54.946Z,10.40
2023-03-06T10:51:58.967Z,10.05
2023-03-06T10:54:27.703Z,11.18
2023-03-06T10:56:56.347Z,10.48
2023-03-06T10:59:28.384Z,11.63
2023-03-06T11:01:58.144Z,11.98
2023-03-06T11:07:16.441Z,10.65
2023-03-06T11:12:24.204Z,16.08
2023-03-06T11:15:09.166Z,10.80
2023-03-06T11:17:38.938Z,11.02
2023-03-06T11:22:37.957Z,11.10
2023-03-06T11:25:07.408Z,12.30
2023-03-06T11:27:37.206Z,11.63
2023-03-06T11:32:39.843Z,11.85
2023-03-06T11:35:12.222Z,11.25
2023-03-06T11:37:47.611Z,12.60
2023-03-06T11:40:19.254Z,11.50
2023-03-06T11:42:51.587Z,11.60
2023-03-06T11:45:28.202Z,11.68
2023-03-06T11:48:02.865Z,10.98
2023-03-06T11:50:35.162Z,10.98
2023-03-06T11:53:06.303Z,11.57
2023-03-06T11:55:40.891Z,11.23
2023-03-06T11:58:29.093Z,10.88
2023-03-06T12:01:00.693Z,11.90
2023-03-06T12:03:47.121Z,12.00
2023-03-06T12:06:23.328Z,13.23
2023-03-06T12:09:01.276Z,13.50
2023-03-06T12:11:35.392Z,13.02
2023-03-06T12:14:21.992Z,12.63
2023-03-06T12:17:11.592Z,12.57
2023-03-06T12:19:47.237Z,13.20
2023-03-06T12:22:23.429Z,13.35
2023-03-06T12:25:10.449Z,14.20
2023-03-06T12:27:44.109Z,13.38
2023-03-06T12:30:30.966Z,14.60
2023-03-06T12:33:05.985Z,14.75
2023-03-06T12:35:45.410Z,17.38
2023-03-06T12:38:25.400Z,15.25
2023-03-06T12:41:01.468Z,14.02
2023-03-06T12:44:02.989Z,14.00
2023-03-06T12:46:31.626Z,14.65
2023-03-06T12:49:04.727Z,15.10
2023-03-06T12:51:34.332Z,15.10
2023-03-06T12:54:04.368Z,16.95
2023-03-06T12:56:35.489Z,17.27
2023-03-06T12:59:04.380Z,16.00
2023-03-06T13:01:43.634Z,16.50
2023-03-06T13:04:25.887Z,17.52
2023-03-06T13:07:03.688Z,16.15
2023-03-06T13:09:37.339Z,16.92
2023-03-06T13:12:51.403Z,16.95
2023-03-06T13:19:20.741Z,17.45
2023-03-06T13:22:03.341Z,18.00
2023-03-06T13:24:33.972Z,17.33
2023-03-06T13:27:10.407Z,15.82
2023-03-06T13:30:03.488Z,14.68
2023-03-06T13:32:33.904Z,15.50
2023-03-06T13:35:04.559Z,16.30
2023-03-06T13:37:49.615Z,15.85
2023-03-06T13:40:28.996Z,16.33
2023-03-06T13:43:07.193Z,16.88
2023-03-06T13:45:36.218Z,16.42
2023-03-06T13:48:33.682Z,16.77
2023-03-06T13:50:55.629Z,16.63
2023-03-06T13:53:41.801Z,17.15
2023-03-06T13:56:19.131Z,15.95
2023-03-06T13:58:55.928Z,17.15
2023-03-06T14:01:28.311Z,18.70
2023-03-06T14:04:17.675Z,18.90
2023-03-06T14:06:55.070Z,17.77
2023-03-06T14:09:28.563Z,16.60
2023-03-06T14:12:00.843Z,18.02
2023-03-06T14:14:36.382Z,17.42
2023-03-06T14:17:06.022Z,30.60
2023-03-06T14:19:39.684Z,45.45
2023-03-06T14:22:14.772Z,23.52
2023-03-06T14:24:46.059Z,23.08
2023-03-06T14:27:19.117Z,18.17
2023-03-06T14:29:48.697Z,18.95
2023-03-06T14:32:18.489Z,18.17
2023-03-06T14:37:25.054Z,13.85
2023-03-06T14:39:56.077Z,15.23
2023-03-06T14:42:25.762Z,16.27
2023-03-06T14:45:03.387Z,15.93
2023-03-06T14:47:32.874Z,17.00
2023-03-06T14:50:21.624Z,16.25
2023-03-06T14:52:52.375Z,15.77
2023-03-06T14:55:22.037Z,18.13
2023-03-06T14:57:52.435Z,16.92
2023-03-06T15:00:22.571Z,16.38
2023-03-06T15:02:52.510Z,16.90
2023-03-06T15:05:23.655Z,16.40
2023-03-06T15:07:54.550Z,16.38
2023-03-06T15:10:25.504Z,15.35
2023-03-06T15:12:54.493Z,16.25
2023-03-06T15:15:28.644Z,16.57
2023-03-06T15:17:57.370Z,15.57
2023-03-06T15:20:41.206Z,15.60
2023-03-06T15:23:21.570Z,15.77
2023-03-06T15:26:08.133Z,16.23
2023-03-06T15:28:38.970Z,17.45
2023-03-06T15:31:20.520Z,17.35
2023-03-06T15:34:02.298Z,16.42
2023-03-06T15:36:31.791Z,16.80
2023-03-06T15:39:01.863Z,16.45
2023-03-06T15:41:33.406Z,14.30
2023-03-06T15:44:02.999Z,13.38
2023-03-06T15:46:31.650Z,14.52
2023-03-06T15:49:03.252Z,15.32
2023-03-06T15:51:32.493Z,15.82
2023-03-06T15:54:11.827Z,15.23
2023-03-06T15:56:42.683Z,15.05
2023-03-06T15:59:15.997Z,15.02
2023-03-06T16:01:44.829Z,14.95
2023-03-06T16:04:13.971Z,15.30
2023-03-06T16:06:43.177Z,14.57
2023-03-06T16:09:13.317Z,14.95
2023-03-06T16:11:45.067Z,15.07
2023-03-06T16:14:20.073Z,15.48
2023-03-06T16:16:49.444Z,15.70
2023-03-06T16:19:26.116Z,16.20
2023-03-06T16:21:55.454Z,16.23
2023-03-06T16:24:28.145Z,15.97
2023-03-06T16:26:56.877Z,16.10
2023-03-06T16:29:26.617Z,18.30
2023-03-06T16:34:23.998Z,18.02
2023-03-06T16:36:52.955Z,16.33
2023-03-06T16:39:22.310Z,15.47
2023-03-06T16:41:52.290Z,15.27
2023-03-06T16:44:21.345Z,15.43
2023-03-06T16:46:51.347Z,12.27
2023-03-06T16:49:20.846Z,15.25
2023-03-06T16:51:49.737Z,43.17
2023-03-06T16:54:18.503Z,69.32
2023-03-06T16:56:47.525Z,43.20
2023-03-06T16:59:17.803Z,23.80
2023-03-06T17:01:46.619Z,23.52
2023-03-06T17:04:15.349Z,22.50
2023-03-06T17:06:44.066Z,22.23
2023-03-06T17:09:14.280Z,20.52
2023-03-06T17:11:46.621Z,21.48
2023-03-06T17:14:15.394Z,21.52
2023-03-06T17:16:46.353Z,22.80
2023-03-06T17:19:16.126Z,16.63
2023-03-06T17:24:13.354Z,9.38
2023-03-06T17:26:43.536Z,8.95
2023-03-06T17:29:12.790Z,9.50
2023-03-06T17:31:41.439Z,9.55
2023-03-06T17:34:11.540Z,10.68
2023-03-06T17:36:40.604Z,9.65
2023-03-06T17:39:10.197Z,10.57
2023-03-06T17:41:39.353Z,11.30
2023-03-06T17:44:08.048Z,12.90
2023-03-06T17:46:36.777Z,12.45
2023-03-06T17:49:05.792Z,13.15
2023-03-06T17:51:35.872Z,14.50
2023-03-06T17:54:04.539Z,15.35
2023-03-06T17:56:33.182Z,15.25
2023-03-06T17:59:02.237Z,14.35
2023-03-06T18:01:30.928Z,16.63
2023-03-06T18:03:59.604Z,17.10
2023-03-06T18:06:30.212Z,14.93
2023-03-06T18:09:00.260Z,14.52
2023-03-06T18:11:28.902Z,18.08
2023-03-06T18:13:57.799Z,16.00
2023-03-06T18:16:28.033Z,19.27
2023-03-06T18:18:57.948Z,17.00
2023-03-06T18:21:27.029Z,17.55
2023-03-06T18:23:55.906Z,19.40
2023-03-06T18:26:27.229Z,15.00
2023-03-06T18:28:56.463Z,22.52
2023-03-06T18:31:26.684Z,22.52
2023-03-06T18:33:56.249Z,24.42
2023-03-06T18:36:25.900Z,27.48
2023-03-06T18:38:55.785Z,25.40
2023-03-06T18:41:25.946Z,28.58
2023-03-06T18:43:54.946Z,24.63
2023-03-06T18:46:23.758Z,32.13
2023-03-06T18:48:52.528Z,35.30
2023-03-06T18:51:21.430Z,25.27
2023-03-06T18:53:50.607Z,22.13
2023-03-06T18:56:20.135Z,23.65
2023-03-06T18:58:51.577Z,25.10
2023-03-06T19:01:21.233Z,20.65
2023-03-06T19:03:49.910Z,23.48
2023-03-06T19:06:18.967Z,24.75
2023-03-06T19:08:47.668Z,28.92
2023-03-06T19:11:17.447Z,30.88
2023-03-06T19:16:20.090Z,27.33
2023-03-06T19:18:49.098Z,23.60
2023-03-06T19:21:19.688Z,20.85
2023-03-06T19:23:48.840Z,21.00
2023-03-06T19:26:18.585Z,20.25
2023-03-06T19:31:19.481Z,19.02
2023-03-06T19:33:50.101Z,18.48
2023-03-06T19:36:19.517Z,19.70
2023-03-06T19:38:52.548Z,17.73
2023-03-06T19:41:21.286Z,20.05
2023-03-06T19:43:52.081Z,19.80
2023-03-06T19:46:21.292Z,18.90
2023-03-06T19:48:55.620Z,18.15
2023-03-06T19:51:24.350Z,18.30
2023-03-06T19:53:53.357Z,18.52
2023-03-06T19:56:26.004Z,19.77
2023-03-06T19:58:55.129Z,20.10
2023-03-06T20:01:25.128Z,21.15
2023-03-06T20:03:59.213Z,20.67
2023-03-06T20:06:29.398Z,22.05
2023-03-06T20:11:29.808Z,20.67
2023-03-06T20:13:59.454Z,22.85
2023-03-06T20:16:29.129Z,47.95
2023-03-06T20:21:30.176Z,37.42
2023-03-06T20:23:58.916Z,31.08
2023-03-06T20:26:28.473Z,22.83
2023-03-06T20:28:58.041Z,28.58
2023-03-06T20:31:27.720Z,26.25
2023-03-06T20:36:27.665Z,15.68
2023-03-06T20:38:58.208Z,20.58
2023-03-06T20:41:28.470Z,22.02
2023-03-06T20:43:57.402Z,22.95
2023-03-06T20:46:26.253Z,23.67
2023-03-06T20:48:55.936Z,25.80
2023-03-06T20:51:25.579Z,22.75
2023-03-06T20:53:54.614Z,23.23
2023-03-06T20:56:25.847Z,23.27
2023-03-06T20:58:54.562Z,22.20
2023-03-06T21:01:23.860Z,22.80
2023-03-06T21:03:53.184Z,22.65
2023-03-06T21:06:22.498Z,22.52
2023-03-06T21:08:51.373Z,23.17
2023-03-06T21:11:20.196Z,21.53
2023-03-06T21:13:50.531Z,23.30
2023-03-06T21:16:20.760Z,21.45
2023-03-06T21:18:49.792Z,22.42
2023-03-06T21:21:19.300Z,24.42
2023-03-06T21:23:48.928Z,23.02
2023-03-06T21:26:18.320Z,21.90
2023-03-06T21:28:47.418Z,23.08
2023-03-06T21:31:18.690Z,22.20
2023-03-06T21:33:48.840Z,21.30
2023-03-06T21:36:18.391Z,23.05
2023-03-06T21:38:47.461Z,22.52
2023-03-06T21:41:17.587Z,21.92
2023-03-06T21:43:46.451Z,22.05
2023-03-06T21:46:15.628Z,22.30
2023-03-06T21:48:46.282Z,21.92
2023-03-06T21:51:16.092Z,20.58
2023-03-06T21:53:45.272Z,22.13
2023-03-06T21:56:15.010Z,22.55
2023-03-06T22:01:13.125Z,22.73
2023-03-06T22:03:42.232Z,23.13
2023-03-06T22:06:13.294Z,23.27
2023-03-06T22:08:42.225Z,23.40
2023-03-06T22:11:12.059Z,23.73
2023-03-06T22:16:09.896Z,21.45
2023-03-06T22:18:39.392Z,23.85
2023-03-06T22:21:08.889Z,23.17
2023-03-06T22:23:39.018Z,23.17
2023-03-06T22:26:09.279Z,23.00
2023-03-06T22:28:38.103Z,21.88
2023-03-06T22:31:08.118Z,22.73
2023-03-06T22:33:36.769Z,21.60
2023-03-06T22:36:07.574Z,21.55
2023-03-06T22:38:36.917Z,21.45
2023-03-06T22:41:07.309Z,22.20
2023-03-06T22:43:36.113Z,22.45
2023-03-06T22:46:05.416Z,24.20
2023-03-06T22:48:34.388Z,22.90
2023-03-06T22:51:04.126Z,23.87
2023-03-06T22:53:32.997Z,23.65
2023-03-06T22:56:01.937Z,22.13
2023-03-06T22:58:35.567Z,22.73
2023-03-06T23:01:08.700Z,25.00
2023-03-06T23:03:37.958Z,23.90
2023-03-06T23:06:07.824Z,23.30
2023-03-06T23:08:37.130Z,23.55
2023-03-06T23:11:09.926Z,23.55
2023-03-06T23:13:40.124Z,24.33
2023-03-06T23:16:09.691Z,23.50
2023-03-06T23:18:38.890Z,23.20
2023-03-06T23:21:08.185Z,23.73
2023-03-06T23:23:37.054Z,24.75
2023-03-06T23:26:12.311Z,24.17
2023-03-06T23:28:42.925Z,23.83
2023-03-06T23:31:12.445Z,23.35
2023-03-06T23:33:41.172Z,22.23
2023-03-06T23:36:10.868Z,21.55
2023-03-06T23:41:09.680Z,20.50
2023-03-06T23:43:38.324Z,21.60
2023-03-06T23:46:08.895Z,20.75
2023-03-06T23:48:38.437Z,19.88
2023-03-06T23:51:07.632Z,19.25
2023-03-06T23:53:36.704Z,20.40
2023-03-06T23:56:06.535Z,19.20
2023-03-06T23:58:35.263Z,19.98
